createdAt,value
2019-01-10T00:00:54.181Z,80.38
2019-01-10T00:01:56.992Z,80.43
2019-01-10T00:03:00.003Z,80.66
2019-01-10T00:04:02.941Z,80.55
2019-01-10T00:05:08.169Z,80.58
2019-01-10T00:06:12.218Z,80.36
2019-01-10T00:07:15.478Z,79.95
2019-01-10T00:08:18.864Z,79.95
2019-01-10T00:09:23.976Z,80.27
2019-01-10T00:10:26.685Z,80.82
2019-01-10T00:11:30.430Z,80.71
2019-01-10T00:12:39.345Z,80.82
2019-01-10T00:13:37.609Z,80.82
2019-01-10T00:14:40.351Z,80.62
2019-01-10T00:15:43.269Z,80.75
2019-01-10T00:16:46.302Z,80.77
2019-01-10T00:17:50.174Z,80.62
2019-01-10T00:18:53.524Z,80.87
2019-01-10T00:19:57.376Z,80.64
2019-01-10T00:21:00.278Z,80.64
2019-01-10T00:22:03.165Z,81.17
2019-01-10T00:23:05.980Z,81.17
2019-01-10T00:24:08.930Z,81.35
2019-01-10T00:25:12.325Z,81.35
2019-01-10T00:26:15.118Z,81.16
2019-01-10T00:27:17.987Z,81.29
2019-01-10T00:28:20.795Z,81.13
2019-01-10T00:29:23.962Z,81.46
2019-01-10T00:30:26.755Z,81.40
2019-01-10T00:31:30.686Z,81.83
2019-01-10T00:32:41.686Z,81.83
2019-01-10T00:33:44.910Z,81.73
2019-01-10T00:34:48.239Z,81.84
2019-01-10T00:35:54.599Z,81.84
2019-01-10T00:36:58.586Z,81.67
2019-01-10T00:38:01.793Z,81.83
2019-01-10T00:39:04.909Z,81.83
2019-01-10T00:40:07.800Z,81.87
2019-01-10T00:41:11.012Z,81.99
2019-01-10T00:42:13.983Z,81.82
2019-01-10T00:43:16.783Z,81.82
2019-01-10T00:44:19.512Z,81.88
2019-01-10T00:45:23.460Z,81.92
2019-01-10T00:46:26.424Z,81.95
2019-01-10T00:47:29.415Z,81.95
2019-01-10T00:48:32.179Z,81.90
2019-01-10T00:49:35.374Z,81.77
2019-01-10T00:50:38.391Z,81.67
2019-01-10T00:51:41.181Z,81.40
2019-01-10T00:52:43.987Z,81.35
2019-01-10T00:53:46.953Z,81.46
2019-01-10T00:54:49.679Z,81.61
2019-01-10T00:55:52.883Z,81.68
2019-01-10T00:56:55.606Z,81.60
2019-01-10T00:57:58.416Z,81.07
2019-01-10T00:59:01.290Z,81.48
2019-01-10T01:00:03.993Z,81.56
2019-01-10T01:01:07.073Z,81.58
2019-01-10T01:02:10.336Z,81.04
2019-01-10T01:03:13.056Z,81.63
2019-01-10T01:04:16.080Z,81.15
2019-01-10T01:05:18.809Z,81.42
2019-01-10T01:06:21.788Z,81.48
2019-01-10T01:07:24.638Z,81.21
2019-01-10T01:08:30.807Z,81.36
2019-01-10T01:09:34.536Z,81.19
2019-01-10T01:10:37.247Z,81.68
2019-01-10T01:11:40.275Z,81.51
2019-01-10T01:12:44.596Z,81.60
2019-01-10T01:13:47.339Z,81.22
2019-01-10T01:14:50.492Z,81.36
2019-01-10T01:15:53.285Z,81.43
2019-01-10T01:16:58.438Z,81.60
2019-01-10T01:18:01.326Z,80.94
2019-01-10T01:19:04.197Z,81.41
2019-01-10T01:20:06.888Z,81.69
2019-01-10T01:21:10.116Z,81.56
2019-01-10T01:22:13.057Z,81.47
2019-01-10T01:23:17.824Z,81.10
2019-01-10T01:24:20.471Z,81.10
2019-01-10T01:25:23.377Z,81.75
2019-01-10T01:26:26.511Z,81.16
2019-01-10T01:27:29.674Z,81.16
2019-01-10T01:28:32.976Z,81.36
2019-01-10T01:29:36.131Z,81.36
2019-01-10T01:30:39.423Z,81.48
2019-01-10T01:31:42.756Z,81.03
2019-01-10T01:32:45.560Z,81.03
2019-01-10T01:33:48.876Z,81.36
2019-01-10T01:34:51.705Z,80.88
2019-01-10T01:35:54.474Z,81.25
2019-01-10T01:36:57.198Z,80.71
2019-01-10T01:37:59.992Z,81.35
2019-01-10T01:39:03.403Z,81.35
2019-01-10T01:40:06.583Z,80.45
2019-01-10T01:41:09.431Z,81.30
2019-01-10T01:42:12.454Z,81.12
2019-01-10T01:43:15.182Z,81.06
2019-01-10T01:44:18.348Z,81.30
2019-01-10T01:45:21.521Z,81.32
2019-01-10T01:46:24.721Z,81.35
2019-01-10T01:47:29.406Z,80.97
2019-01-10T01:48:32.269Z,80.98
2019-01-10T01:49:35.607Z,81.43
2019-01-10T01:50:38.447Z,81.10
2019-01-10T01:51:41.295Z,80.89
2019-01-10T01:52:44.488Z,80.95
2019-01-10T01:53:47.273Z,81.02
2019-01-10T01:54:49.997Z,80.81
2019-01-10T01:55:52.808Z,81.13
2019-01-10T01:56:55.777Z,80.99
2019-01-10T01:57:58.671Z,81.25
2019-01-10T01:59:01.986Z,81.25
2019-01-10T02:00:04.840Z,80.81
2019-01-10T02:01:07.565Z,80.84
2019-01-10T02:02:10.307Z,80.95
2019-01-10T02:03:13.336Z,81.51
2019-01-10T02:04:16.382Z,80.97
2019-01-10T02:05:19.266Z,80.86
2019-01-10T02:06:22.180Z,80.82
2019-01-10T02:07:25.484Z,80.82
2019-01-10T02:08:28.410Z,80.82
2019-01-10T02:09:31.940Z,81.02
2019-01-10T02:10:35.062Z,81.54
2019-01-10T02:11:38.397Z,81.24
2019-01-10T02:12:41.121Z,81.50
2019-01-10T02:13:43.924Z,81.01
2019-01-10T02:14:46.712Z,80.95
2019-01-10T02:15:49.603Z,81.12
2019-01-10T02:16:52.726Z,81.34
2019-01-10T02:17:56.061Z,81.00
2019-01-10T02:18:58.782Z,80.94
2019-01-10T02:20:01.660Z,81.05
2019-01-10T02:21:04.391Z,81.32
2019-01-10T02:22:07.309Z,81.29
2019-01-10T02:23:10.241Z,81.36
2019-01-10T02:24:13.538Z,81.67
2019-01-10T02:25:16.706Z,81.63
2019-01-10T02:26:19.596Z,81.65
2019-01-10T02:27:22.395Z,81.65
2019-01-10T02:28:25.280Z,81.82
2019-01-10T02:29:28.489Z,81.92
2019-01-10T02:30:41.609Z,81.29
2019-01-10T02:31:36.058Z,81.47
2019-01-10T02:32:38.845Z,81.18
2019-01-10T02:33:41.596Z,81.83
2019-01-10T02:34:44.511Z,82.04
2019-01-10T02:35:47.345Z,81.88
2019-01-10T02:36:50.637Z,81.88
2019-01-10T02:37:53.610Z,81.58
2019-01-10T02:38:56.514Z,81.96
2019-01-10T02:39:59.247Z,81.56
2019-01-10T02:41:02.817Z,81.66
2019-01-10T02:42:05.828Z,80.93
2019-01-10T02:43:09.057Z,81.71
2019-01-10T02:44:12.026Z,81.26
2019-01-10T02:45:14.927Z,81.52
2019-01-10T02:46:17.648Z,81.55
2019-01-10T02:47:20.484Z,81.83
2019-01-10T02:48:23.420Z,81.10
2019-01-10T02:49:26.821Z,81.10
2019-01-10T02:50:30.370Z,81.02
2019-01-10T02:51:35.322Z,81.22
2019-01-10T02:52:38.204Z,81.78
2019-01-10T02:53:41.202Z,81.77
2019-01-10T02:54:44.132Z,81.78
2019-01-10T02:55:47.733Z,81.78
2019-01-10T02:56:50.552Z,81.50
2019-01-10T02:57:53.474Z,82.17
2019-01-10T02:58:56.276Z,82.17
2019-01-10T02:59:59.020Z,81.84
2019-01-10T03:01:01.778Z,81.88
2019-01-10T03:02:05.575Z,81.92
2019-01-10T03:03:08.447Z,81.57
2019-01-10T03:04:11.152Z,81.50
2019-01-10T03:05:13.910Z,81.68
2019-01-10T03:06:17.292Z,81.49
2019-01-10T03:07:20.271Z,81.40
2019-01-10T03:08:23.470Z,81.68
2019-01-10T03:09:26.297Z,81.85
2019-01-10T03:10:29.495Z,82.04
2019-01-10T03:11:32.263Z,81.50
2019-01-10T03:12:35.077Z,81.90
2019-01-10T03:13:40.854Z,81.77
2019-01-10T03:14:46.771Z,81.81
2019-01-10T03:15:49.656Z,81.74
2019-01-10T03:16:52.589Z,81.56
2019-01-10T03:17:55.411Z,81.62
2019-01-10T03:18:58.173Z,81.43
2019-01-10T03:20:01.078Z,81.98
2019-01-10T03:21:04.492Z,81.61
2019-01-10T03:22:07.297Z,82.01
2019-01-10T03:23:10.191Z,81.97
2019-01-10T03:24:12.911Z,81.69
2019-01-10T03:25:15.850Z,81.69
2019-01-10T03:26:18.686Z,81.93
2019-01-10T03:27:22.201Z,81.85
2019-01-10T03:28:25.142Z,81.87
2019-01-10T03:29:28.100Z,82.17
2019-01-10T03:30:30.986Z,82.14
2019-01-10T03:31:34.047Z,82.18
2019-01-10T03:32:36.918Z,82.07
2019-01-10T03:33:48.822Z,81.95
2019-01-10T03:34:52.328Z,82.17
2019-01-10T03:35:55.234Z,82.08
2019-01-10T03:36:58.203Z,82.30
2019-01-10T03:38:01.180Z,82.00
2019-01-10T03:39:04.718Z,82.32
2019-01-10T03:40:08.033Z,82.74
2019-01-10T03:41:11.122Z,82.89
2019-01-10T03:42:14.027Z,82.66
2019-01-10T03:43:16.909Z,82.67
2019-01-10T03:44:19.830Z,82.34
2019-01-10T03:45:22.774Z,82.76
2019-01-10T03:46:26.363Z,82.34
2019-01-10T03:47:29.258Z,82.87
2019-01-10T03:48:32.155Z,82.79
2019-01-10T03:49:35.075Z,82.79
2019-01-10T03:50:38.144Z,82.49
2019-01-10T03:51:41.067Z,82.85
2019-01-10T03:52:44.377Z,82.91
2019-01-10T03:53:47.721Z,82.93
2019-01-10T03:54:50.628Z,82.56
2019-01-10T03:55:53.597Z,82.34
2019-01-10T03:56:56.571Z,82.35
2019-01-10T03:57:59.460Z,82.59
2019-01-10T03:59:02.819Z,82.85
2019-01-10T04:00:06.246Z,82.96
2019-01-10T04:01:09.415Z,82.83
2019-01-10T04:02:12.500Z,82.83
2019-01-10T04:03:15.413Z,82.60
2019-01-10T04:04:18.308Z,82.47
2019-01-10T04:05:21.710Z,82.72
2019-01-10T04:06:24.588Z,82.98
2019-01-10T04:07:29.729Z,82.98
2019-01-10T04:08:32.598Z,82.77
2019-01-10T04:09:35.495Z,82.84
2019-01-10T04:10:38.434Z,82.70
2019-01-10T04:11:41.840Z,82.70
2019-01-10T04:12:45.313Z,83.33
2019-01-10T04:13:57.127Z,83.00
2019-01-10T04:14:52.749Z,82.78
2019-01-10T04:15:55.621Z,83.52
2019-01-10T04:16:58.500Z,83.34
2019-01-10T04:18:01.811Z,82.93
2019-01-10T04:19:04.680Z,82.69
2019-01-10T04:20:07.597Z,83.21
2019-01-10T04:21:17.014Z,83.22
2019-01-10T04:22:15.021Z,83.14
2019-01-10T04:23:17.978Z,82.83
2019-01-10T04:24:21.215Z,83.00
2019-01-10T04:25:24.181Z,83.10
2019-01-10T04:26:27.077Z,83.06
2019-01-10T04:27:30.402Z,83.06
2019-01-10T04:28:34.762Z,83.23
2019-01-10T04:29:37.710Z,83.16
2019-01-10T04:30:40.608Z,83.17
2019-01-10T04:31:43.924Z,83.17
2019-01-10T04:32:46.893Z,83.57
2019-01-10T04:33:50.199Z,83.26
2019-01-10T04:34:53.177Z,83.32
2019-01-10T04:35:56.505Z,83.69
2019-01-10T04:36:59.398Z,83.20
2019-01-10T04:38:02.274Z,83.56
2019-01-10T04:39:06.289Z,83.71
2019-01-10T04:40:09.293Z,83.45
2019-01-10T04:41:12.170Z,83.45
2019-01-10T04:42:15.393Z,83.12
2019-01-10T04:43:18.399Z,83.12
2019-01-10T04:44:21.374Z,83.07
2019-01-10T04:45:24.257Z,83.39
2019-01-10T04:46:27.154Z,83.51
2019-01-10T04:47:32.497Z,83.16
2019-01-10T04:48:35.560Z,83.15
2019-01-10T04:49:38.562Z,82.94
2019-01-10T04:50:41.445Z,83.51
2019-01-10T04:51:44.313Z,83.71
2019-01-10T04:52:47.213Z,83.71
2019-01-10T04:53:50.086Z,83.31
2019-01-10T04:54:56.107Z,83.28
2019-01-10T04:55:57.949Z,83.44
2019-01-10T04:57:01.201Z,83.32
2019-01-10T04:58:04.132Z,83.45
2019-01-10T04:59:07.090Z,83.10
2019-01-10T05:00:10.027Z,83.10
2019-01-10T05:01:13.343Z,83.40
2019-01-10T05:02:18.469Z,83.36
2019-01-10T05:03:20.921Z,83.47
2019-01-10T05:04:23.947Z,83.62
2019-01-10T05:05:27.530Z,83.56
2019-01-10T05:06:30.552Z,83.40
2019-01-10T05:07:33.850Z,83.91
2019-01-10T05:08:36.734Z,83.46
2019-01-10T05:09:40.079Z,83.46
2019-01-10T05:10:43.069Z,84.18
2019-01-10T05:11:45.977Z,83.94
2019-01-10T05:12:49.328Z,83.65
2019-01-10T05:13:52.750Z,83.98
2019-01-10T05:14:55.758Z,83.98
2019-01-10T05:15:58.760Z,83.99
2019-01-10T05:17:01.643Z,84.20
2019-01-10T05:18:04.553Z,83.73
2019-01-10T05:19:07.457Z,83.73
2019-01-10T05:20:10.806Z,83.45
2019-01-10T05:21:13.803Z,83.88
2019-01-10T05:22:17.179Z,83.78
2019-01-10T05:23:22.196Z,83.75
2019-01-10T05:24:25.195Z,83.75
2019-01-10T05:25:28.588Z,83.48
2019-01-10T05:26:32.399Z,83.48
2019-01-10T05:27:35.268Z,83.48
2019-01-10T05:28:38.238Z,83.73
2019-01-10T05:29:41.118Z,83.62
2019-01-10T05:30:44.455Z,83.62
2019-01-10T05:31:47.392Z,83.49
2019-01-10T05:32:50.596Z,83.41
2019-01-10T05:33:53.672Z,83.30
2019-01-10T05:34:56.623Z,83.68
2019-01-10T05:35:59.708Z,83.68
2019-01-10T05:37:02.576Z,83.74
2019-01-10T05:38:05.517Z,83.53
2019-01-10T05:39:09.318Z,83.29
2019-01-10T05:40:20.412Z,83.08
2019-01-10T05:41:22.737Z,83.12
2019-01-10T05:42:25.682Z,82.92
2019-01-10T05:43:28.585Z,82.92
2019-01-10T05:44:31.699Z,83.02
2019-01-10T05:45:35.124Z,83.13
2019-01-10T05:46:38.028Z,83.40
2019-01-10T05:47:43.026Z,83.23
2019-01-10T05:48:47.017Z,83.27
2019-01-10T05:49:50.550Z,83.44
2019-01-10T05:50:53.444Z,83.83
2019-01-10T05:51:56.670Z,83.40
2019-01-10T05:52:59.655Z,83.86
2019-01-10T05:54:02.568Z,83.62
2019-01-10T05:55:06.898Z,83.77
2019-01-10T05:56:15.349Z,83.36
2019-01-10T05:57:14.798Z,83.30
2019-01-10T05:58:18.285Z,83.47
2019-01-10T05:59:21.156Z,83.21
2019-01-10T06:00:24.064Z,83.28
2019-01-10T06:01:26.955Z,83.28
2019-01-10T06:02:29.864Z,83.37
2019-01-10T06:03:32.881Z,83.13
2019-01-10T06:04:35.744Z,83.13
2019-01-10T06:05:38.684Z,83.30
2019-01-10T06:06:41.611Z,83.60
2019-01-10T06:07:44.495Z,83.44
2019-01-10T06:08:47.503Z,83.77
2019-01-10T06:09:52.440Z,83.77
2019-01-10T06:10:55.348Z,83.48
2019-01-10T06:11:58.321Z,83.30
2019-01-10T06:13:01.566Z,83.60
2019-01-10T06:14:04.510Z,83.85
2019-01-10T06:15:07.376Z,83.85
2019-01-10T06:16:11.172Z,83.44
2019-01-10T06:17:14.159Z,83.10
2019-01-10T06:18:17.665Z,83.40
2019-01-10T06:19:26.903Z,83.25
2019-01-10T06:20:29.040Z,83.34
2019-01-10T06:21:34.956Z,83.34
2019-01-10T06:22:38.236Z,83.45
2019-01-10T06:23:41.190Z,83.49
2019-01-10T06:24:44.558Z,83.48
2019-01-10T06:25:47.505Z,83.55
2019-01-10T06:26:52.850Z,83.79
2019-01-10T06:27:56.112Z,84.14
2019-01-10T06:28:59.581Z,83.90
2019-01-10T06:30:02.499Z,83.81
2019-01-10T06:44:16.909Z,84.13
2019-01-10T06:45:20.681Z,84.21
2019-01-10T06:46:23.803Z,84.45
2019-01-10T06:47:26.749Z,84.38
2019-01-10T06:48:31.119Z,84.59
2019-01-10T06:49:34.382Z,84.50
2019-01-10T06:50:39.123Z,84.36
2019-01-10T06:51:41.848Z,84.66
2019-01-10T06:52:44.826Z,84.23
2019-01-10T06:53:48.279Z,84.23
2019-01-10T06:54:56.637Z,84.23
2019-01-10T06:55:59.082Z,84.36
2019-01-10T06:57:02.001Z,84.48
2019-01-10T06:58:04.889Z,84.48
2019-01-10T06:59:08.649Z,84.43
2019-01-10T07:00:11.707Z,84.39
2019-01-10T07:01:15.405Z,84.39
2019-01-10T07:02:18.571Z,84.41
2019-01-10T07:03:21.531Z,84.29
2019-01-10T07:04:24.933Z,84.54
2019-01-10T07:05:27.964Z,84.35
2019-01-10T07:06:30.864Z,84.35
2019-01-10T07:07:33.765Z,84.37
2019-01-10T07:08:36.851Z,84.31
2019-01-10T07:09:40.253Z,84.31
2019-01-10T07:10:43.207Z,84.61
2019-01-10T07:11:46.712Z,84.61
2019-01-10T07:12:50.150Z,84.48
2019-01-10T07:13:53.077Z,84.19
2019-01-10T07:14:55.960Z,84.45
2019-01-10T07:15:58.871Z,84.74
2019-01-10T07:17:01.870Z,84.77
2019-01-10T07:18:05.382Z,84.28
2019-01-10T07:19:08.523Z,84.28
2019-01-10T07:20:11.430Z,84.50
2019-01-10T07:21:14.322Z,84.51
2019-01-10T07:22:17.265Z,84.60
2019-01-10T07:23:20.277Z,84.60
2019-01-10T07:24:23.186Z,84.38
2019-01-10T07:25:26.638Z,84.36
2019-01-10T07:26:29.928Z,84.47
2019-01-10T07:27:32.957Z,84.71
2019-01-10T07:28:36.010Z,84.71
2019-01-10T07:29:38.904Z,84.44
2019-01-10T07:30:42.710Z,84.48
2019-01-10T07:31:47.051Z,84.48
2019-01-10T07:32:51.832Z,84.68
2019-01-10T07:33:59.128Z,84.68
2019-01-10T07:35:02.057Z,84.48
2019-01-10T07:36:04.952Z,84.36
2019-01-10T07:37:13.004Z,84.36
2019-01-10T07:38:12.740Z,84.37
2019-01-10T07:39:15.733Z,84.24
2019-01-10T07:40:18.898Z,84.24
2019-01-10T07:41:21.804Z,84.38
2019-01-10T07:42:24.803Z,84.48
2019-01-10T07:43:28.155Z,84.29
2019-01-10T07:44:31.139Z,84.08
2019-01-10T07:45:34.128Z,84.20
2019-01-10T07:46:38.943Z,83.91
2019-01-10T07:47:51.393Z,84.12
2019-01-10T07:48:54.350Z,83.99
2019-01-10T07:49:57.789Z,83.75
2019-01-10T07:51:01.243Z,84.07
2019-01-10T07:52:04.648Z,83.89
2019-01-10T07:53:12.931Z,83.78
2019-01-10T07:54:15.922Z,84.00
2019-01-10T07:55:19.168Z,83.61
2019-01-10T07:56:22.101Z,83.46
2019-01-10T07:57:24.986Z,83.84
2019-01-10T07:58:28.938Z,83.65
2019-01-10T07:59:33.680Z,83.65
2019-01-10T08:00:36.612Z,83.28
2019-01-10T08:01:39.514Z,83.53
2019-01-10T08:02:42.480Z,83.53
2019-01-10T08:03:45.403Z,83.61
2019-01-10T08:04:54.358Z,83.33
2019-01-10T08:05:57.492Z,83.38
2019-01-10T08:07:00.423Z,83.39
2019-01-10T08:08:03.459Z,83.39
2019-01-10T08:09:06.387Z,83.60
2019-01-10T08:10:10.766Z,83.60
2019-01-10T08:11:14.633Z,83.54
2019-01-10T08:12:18.120Z,82.91
2019-01-10T08:13:24.316Z,82.91
2019-01-10T08:14:27.309Z,83.00
2019-01-10T08:15:30.467Z,83.01
2019-01-10T08:16:36.573Z,82.46
2019-01-10T08:17:40.217Z,82.90
2019-01-10T08:18:43.118Z,82.90
2019-01-10T08:19:47.453Z,82.71
2019-01-10T08:20:50.425Z,82.71
2019-01-10T08:21:53.404Z,82.59
2019-01-10T08:22:56.314Z,82.92
2019-01-10T08:23:59.334Z,82.68
2019-01-10T08:25:02.321Z,82.75
2019-01-10T08:26:05.472Z,82.59
2019-01-10T08:27:09.575Z,82.78
2019-01-10T08:28:12.472Z,82.50
2019-01-10T08:29:20.524Z,82.78
2019-01-10T08:30:25.872Z,82.78
2019-01-10T08:31:28.780Z,82.56
2019-01-10T08:32:31.675Z,82.54
2019-01-10T08:33:34.697Z,82.49
2019-01-10T08:34:41.863Z,82.49
2019-01-10T08:35:46.051Z,81.90
2019-01-10T08:36:48.956Z,81.90
2019-01-10T08:37:51.843Z,81.92
2019-01-10T08:38:54.836Z,81.71
2019-01-10T08:39:57.732Z,81.92
2019-01-10T08:41:00.661Z,82.09
2019-01-10T08:42:03.762Z,82.33
2019-01-10T08:43:06.877Z,82.14
2019-01-10T08:44:10.199Z,81.65
2019-01-10T08:45:21.380Z,81.58
2019-01-10T08:46:25.177Z,81.74
2019-01-10T08:47:30.562Z,81.88
2019-01-10T08:48:35.346Z,81.98
2019-01-10T08:49:40.046Z,81.31
2019-01-10T08:50:43.538Z,81.60
2019-01-10T08:51:51.808Z,81.57
2019-01-10T08:53:15.947Z,81.32
2019-01-10T08:54:26.931Z,81.32
2019-01-10T08:55:44.268Z,81.14
2019-01-10T08:56:48.435Z,80.93
2019-01-10T08:57:53.491Z,80.94
2019-01-10T08:59:01.769Z,80.88
2019-01-10T09:00:04.984Z,80.78
2019-01-10T09:01:08.035Z,81.25
2019-01-10T09:02:11.046Z,80.82
2019-01-10T09:03:14.028Z,80.99
2019-01-10T09:04:18.386Z,80.73
2019-01-10T09:05:23.712Z,80.61
2019-01-10T09:06:29.217Z,80.54
2019-01-10T09:07:32.110Z,80.58
2019-01-10T09:08:36.207Z,79.96
2019-01-10T09:09:39.118Z,79.87
2019-01-10T09:10:42.123Z,79.52
2019-01-10T09:11:46.119Z,79.83
2019-01-10T09:12:54.279Z,79.85
2019-01-10T09:13:57.160Z,79.85
2019-01-10T09:15:00.655Z,80.03
2019-01-10T09:16:06.832Z,79.65
2019-01-10T09:17:09.840Z,79.61
2019-01-10T09:18:12.836Z,79.34
2019-01-10T09:19:22.380Z,79.34
2019-01-10T09:20:25.270Z,79.34
2019-01-10T09:21:28.290Z,79.19
2019-01-10T09:22:31.251Z,79.19
2019-01-10T09:23:34.634Z,78.98
2019-01-10T09:24:47.395Z,78.66
2019-01-10T09:25:50.376Z,78.66
2019-01-10T09:26:53.340Z,78.88
2019-01-10T09:27:56.365Z,78.67
2019-01-10T09:28:59.357Z,78.75
2019-01-10T09:30:02.364Z,78.86
2019-01-10T09:31:05.252Z,78.86
2019-01-10T09:32:08.152Z,78.52
2019-01-10T09:33:11.169Z,78.69
2019-01-10T09:34:14.161Z,78.49
2019-01-10T09:35:19.211Z,78.49
2019-01-10T09:36:23.983Z,77.45
2019-01-10T09:37:29.035Z,77.89
2019-01-10T09:38:31.695Z,77.83
2019-01-10T09:39:34.735Z,77.83
2019-01-10T09:40:37.656Z,77.27
2019-01-10T09:41:40.579Z,77.27
2019-01-10T09:42:43.475Z,77.29
2019-01-10T09:43:46.528Z,77.65
2019-01-10T09:44:49.467Z,77.39
2019-01-10T09:45:52.752Z,77.25
2019-01-10T09:46:55.700Z,76.97
2019-01-10T09:47:58.615Z,77.45
2019-01-10T09:49:02.133Z,77.11
2019-01-10T09:50:05.176Z,77.06
2019-01-10T09:51:08.170Z,77.54
2019-01-10T09:52:11.493Z,76.85
2019-01-10T09:53:14.390Z,77.05
2019-01-10T09:54:19.857Z,77.30
2019-01-10T09:55:22.656Z,76.95
2019-01-10T09:56:31.224Z,76.89
2019-01-10T09:57:36.884Z,77.04
2019-01-10T09:58:40.328Z,77.11
2019-01-10T09:59:43.073Z,77.48
2019-01-10T10:00:47.552Z,76.62
2019-01-10T10:01:50.488Z,76.95
2019-01-10T10:02:53.264Z,76.57
2019-01-10T10:03:56.013Z,76.80
2019-01-10T10:05:00.822Z,76.64
2019-01-10T10:06:07.989Z,76.93
2019-01-10T10:07:11.873Z,76.62
2019-01-10T10:08:14.810Z,77.06
2019-01-10T10:09:17.797Z,77.06
2019-01-10T10:10:20.627Z,76.96
2019-01-10T10:11:23.707Z,76.73
2019-01-10T10:12:26.715Z,76.87
2019-01-10T10:13:29.605Z,76.67
2019-01-10T10:14:32.371Z,77.12
2019-01-10T10:15:35.188Z,76.70
2019-01-10T10:16:38.133Z,76.66
2019-01-10T10:17:41.391Z,76.66
2019-01-10T10:18:44.416Z,76.89
2019-01-10T10:19:47.766Z,76.05
2019-01-10T10:20:50.865Z,76.45
2019-01-10T10:21:53.630Z,76.01
2019-01-10T10:22:56.735Z,76.00
2019-01-10T10:23:59.606Z,76.06
2019-01-10T10:25:02.593Z,75.89
2019-01-10T10:26:08.681Z,75.89
2019-01-10T10:27:13.288Z,75.98
2019-01-10T10:28:16.500Z,76.13
2019-01-10T10:29:19.358Z,75.75
2019-01-10T10:30:22.380Z,75.67
2019-01-10T10:31:25.860Z,75.73
2019-01-10T10:32:28.936Z,75.71
2019-01-10T10:33:32.123Z,75.71
2019-01-10T10:34:34.995Z,76.21
2019-01-10T10:35:37.992Z,76.21
2019-01-10T10:36:40.978Z,76.03
2019-01-10T10:37:43.945Z,75.96
2019-01-10T10:38:46.997Z,75.96
2019-01-10T10:39:50.004Z,75.90
2019-01-10T10:40:53.029Z,75.90
2019-01-10T10:41:57.743Z,75.88
2019-01-10T10:43:00.685Z,75.88
2019-01-10T10:44:05.185Z,76.10
2019-01-10T10:45:10.476Z,75.78
2019-01-10T10:46:15.046Z,75.77
2019-01-10T10:47:21.212Z,75.47
2019-01-10T10:48:24.700Z,75.56
2019-01-10T10:49:28.103Z,75.56
2019-01-10T10:50:31.098Z,75.68
2019-01-10T10:51:34.553Z,75.45
2019-01-10T10:52:37.544Z,74.99
2019-01-10T10:53:40.535Z,74.22
2019-01-10T10:54:43.550Z,74.23
2019-01-10T10:55:46.472Z,74.69
2019-01-10T10:56:49.566Z,74.14
2019-01-10T10:57:52.572Z,74.14
2019-01-10T10:58:55.561Z,74.26
2019-01-10T10:59:58.304Z,74.32
2019-01-10T11:01:01.451Z,74.29
2019-01-10T11:02:04.580Z,75.03
2019-01-10T11:03:07.458Z,74.94
2019-01-10T11:04:11.999Z,74.48
2019-01-10T11:05:14.787Z,74.21
2019-01-10T11:06:18.247Z,74.56
2019-01-10T11:07:21.210Z,73.82
2019-01-10T11:08:26.901Z,74.26
2019-01-10T11:09:29.818Z,74.26
2019-01-10T11:10:33.723Z,74.43
2019-01-10T11:11:36.584Z,74.43
2019-01-10T11:12:43.962Z,74.21
2019-01-10T11:13:48.021Z,74.55
2019-01-10T11:14:50.859Z,74.90
2019-01-10T11:15:54.226Z,74.90
2019-01-10T11:16:57.198Z,74.60
2019-01-10T11:18:00.359Z,74.57
2019-01-10T11:19:03.810Z,74.12
2019-01-10T11:20:06.705Z,74.18
2019-01-10T11:21:12.706Z,74.18
2019-01-10T11:22:15.588Z,74.51
2019-01-10T11:23:19.018Z,74.03
2019-01-10T11:24:21.965Z,74.03
2019-01-10T11:25:24.797Z,74.12
2019-01-10T11:26:28.218Z,73.58
2019-01-10T11:27:30.968Z,74.11
2019-01-10T11:28:34.996Z,74.18
2019-01-10T11:29:38.300Z,73.98
2019-01-10T11:43:06.341Z,73.01
2019-01-10T11:44:09.302Z,73.08
2019-01-10T11:45:12.359Z,73.06
2019-01-10T11:46:19.674Z,73.06
2019-01-10T11:47:19.923Z,73.50
2019-01-10T11:48:23.220Z,72.73
2019-01-10T11:49:26.395Z,72.73
2019-01-10T11:50:29.573Z,72.28
2019-01-10T11:51:32.415Z,72.96
2019-01-10T11:52:35.203Z,72.29
2019-01-10T11:53:38.314Z,72.29
2019-01-10T11:54:41.373Z,72.28
2019-01-10T11:55:44.436Z,72.66
2019-01-10T11:56:47.833Z,71.97
2019-01-10T11:57:51.431Z,71.61
2019-01-10T11:58:54.184Z,71.61
2019-01-10T11:59:57.531Z,71.80
2019-01-10T12:01:00.740Z,71.80
2019-01-10T12:02:03.661Z,71.37
2019-01-10T12:03:06.569Z,71.36
2019-01-10T12:04:09.444Z,70.55
2019-01-10T12:05:12.280Z,70.90
2019-01-10T12:06:15.336Z,70.90
2019-01-10T12:07:18.650Z,70.64
2019-01-10T12:08:21.589Z,71.20
2019-01-10T12:09:24.587Z,71.20
2019-01-10T12:10:28.055Z,71.02
2019-01-10T12:11:33.917Z,70.73
2019-01-10T12:12:39.864Z,71.03
2019-01-10T12:13:49.868Z,70.67
2019-01-10T12:14:53.945Z,70.67
2019-01-10T12:15:56.863Z,70.65
2019-01-10T12:16:59.614Z,70.09
2019-01-10T12:18:02.428Z,69.92
2019-01-10T12:19:05.540Z,69.92
2019-01-10T12:20:11.594Z,69.46
2019-01-10T12:21:14.429Z,68.72
2019-01-10T12:22:17.181Z,68.62
2019-01-10T12:23:20.633Z,68.44
2019-01-10T12:24:23.521Z,68.23
2019-01-10T12:25:26.482Z,68.18
2019-01-10T12:26:29.692Z,67.57
2019-01-10T12:27:33.670Z,66.98
2019-01-10T12:28:36.704Z,66.77
2019-01-10T12:29:39.457Z,66.58
2019-01-10T12:30:42.399Z,66.28
2019-01-10T12:31:45.504Z,66.99
2019-01-10T12:32:48.743Z,66.99
2019-01-10T12:33:52.734Z,66.41
2019-01-10T12:34:55.653Z,66.16
2019-01-10T12:35:58.612Z,66.16
2019-01-10T12:37:04.615Z,66.52
2019-01-10T12:38:07.435Z,66.62
2019-01-10T12:39:15.835Z,66.67
2019-01-10T12:40:25.271Z,67.50
2019-01-10T12:41:28.111Z,67.35
2019-01-10T12:42:31.347Z,67.13
2019-01-10T12:43:34.156Z,66.73
2019-01-10T12:44:39.816Z,66.45
2019-01-10T12:45:43.056Z,66.60
2019-01-10T12:46:45.831Z,66.22
2019-01-10T12:47:49.215Z,66.40
2019-01-10T12:48:56.172Z,66.45
2019-01-10T12:49:58.997Z,66.44
2019-01-10T12:51:01.905Z,66.41
2019-01-10T12:52:08.210Z,66.37
2019-01-10T12:53:11.262Z,66.32
2019-01-10T12:54:14.194Z,66.32
2019-01-10T12:55:17.122Z,65.83
2019-01-10T12:56:20.283Z,65.71
2019-01-10T12:57:23.007Z,65.71
2019-01-10T12:58:27.905Z,65.27
2019-01-10T12:59:31.084Z,65.70
2019-01-10T13:00:36.856Z,66.13
2019-01-10T13:01:39.970Z,65.80
2019-01-10T13:02:43.353Z,65.95
2019-01-10T13:03:46.157Z,66.23
2019-01-10T13:04:49.373Z,65.82
2019-01-10T13:05:53.799Z,66.52
2019-01-10T13:06:56.645Z,66.00
2019-01-10T13:08:03.751Z,65.89
2019-01-10T13:09:04.753Z,65.76
2019-01-10T13:10:07.665Z,65.97
2019-01-10T13:11:10.981Z,66.21
2019-01-10T13:12:14.254Z,66.27
2019-01-10T13:13:17.306Z,66.75
2019-01-10T13:14:20.350Z,65.72
2019-01-10T13:15:23.288Z,65.80
2019-01-10T13:16:27.651Z,65.80
2019-01-10T13:17:35.940Z,66.07
2019-01-10T13:18:38.718Z,65.75
2019-01-10T13:19:41.793Z,66.01
2019-01-10T13:20:44.762Z,66.09
2019-01-10T13:21:48.334Z,66.09
2019-01-10T13:22:51.508Z,65.64
2019-01-10T13:23:54.644Z,66.12
2019-01-10T13:24:57.548Z,65.29
2019-01-10T13:26:00.566Z,65.29
2019-01-10T13:27:03.630Z,65.96
2019-01-10T13:28:06.422Z,65.96
2019-01-10T13:30:12.662Z,65.98
2019-01-10T13:31:15.688Z,65.98
2019-01-10T13:32:18.676Z,66.37
2019-01-10T13:33:21.698Z,65.87
2019-01-10T13:34:26.863Z,66.86
2019-01-10T13:35:29.650Z,66.86
2019-01-10T13:36:32.906Z,66.87
2019-01-10T13:37:36.551Z,66.82
2019-01-10T13:38:39.401Z,66.52
2019-01-10T13:39:42.253Z,66.39
2019-01-10T13:40:45.013Z,66.39
2019-01-10T13:41:48.638Z,66.98
2019-01-10T13:42:51.940Z,66.89
2019-01-10T13:43:55.009Z,66.83
2019-01-10T13:44:58.905Z,67.37
2019-01-10T13:46:01.945Z,67.36
2019-01-10T13:47:04.990Z,67.37
2019-01-10T13:48:10.437Z,68.10
2019-01-10T13:49:13.639Z,67.28
2019-01-10T13:50:16.588Z,67.81
2019-01-10T13:51:21.452Z,67.64
2019-01-10T13:52:24.415Z,67.40
2019-01-10T13:53:27.239Z,67.54
2019-01-10T13:54:30.069Z,67.54
2019-01-10T13:55:33.369Z,67.77
2019-01-10T13:56:36.292Z,67.68
2019-01-10T13:57:39.785Z,67.68
2019-01-10T13:58:42.640Z,67.47
2019-01-10T13:59:45.493Z,68.12
2019-01-10T14:00:48.384Z,68.08
2019-01-10T14:01:57.468Z,67.92
2019-01-10T14:02:59.532Z,67.77
2019-01-10T14:04:02.471Z,67.77
2019-01-10T14:05:10.441Z,68.38